sensor_id;sensor_type;location;lat;lon;timestamp;pressure;altitude;pressure_sealevel;temperature;humidity
57668;BME280;43499;52.366;12.912;2023-01-30T00:00:10;101068.16;;;0.14;93.18
57668;BME280;43499;52.366;12.912;2023-01-30T00:01:17;101100.59;;;0.32;93.66
57668;BME280;43499;52.366;12.912;2023-01-30T00:02:19;101084.28;;;0.26;93.61
57668;BME280;43499;52.366;12.912;2023-01-30T00:03:20;101050.59;;;0.11;93.72
57668;BME280;43499;52.366;12.912;2023-01-30T00:04:22;101060.84;;;0.24;93.64
57668;BME280;43499;52.366;12.912;2023-01-30T00:05:23;101039.59;;;0.27;93.57
57668;BME280;43499;52.366;12.912;2023-01-30T00:06:24;101069.28;;;0.43;93.61
57668;BME280;43499;52.366;12.912;2023-01-30T00:07:25;101082.38;;;0.45;93.57
57668;BME280;43499;52.366;12.912;2023-01-30T00:08:26;101064.97;;;0.37;93.79
57668;BME280;43499;52.366;12.912;2023-01-30T00:09:27;101055.22;;;0.41;93.56
57668;BME280;43499;52.366;12.912;2023-01-30T00:10:28;101062.81;;;0.47;93.59
57668;BME280;43499;52.366;12.912;2023-01-30T00:11:29;101057.06;;;0.42;93.84
57668;BME280;43499;52.366;12.912;2023-01-30T00:12:32;101034.69;;;0.36;93.15
57668;BME280;43499;52.366;12.912;2023-01-30T00:13:34;101056.53;;;0.45;93.25
57668;BME280;43499;52.366;12.912;2023-01-30T00:14:35;101051.16;;;0.43;92.79
57668;BME280;43499;52.366;12.912;2023-01-30T00:15:36;101022.81;;;0.30;93.31
57668;BME280;43499;52.366;12.912;2023-01-30T00:16:37;101038.03;;;0.42;92.85
57668;BME280;43499;52.366;12.912;2023-01-30T00:17:38;101048.38;;;0.42;92.91
57668;BME280;43499;52.366;12.912;2023-01-30T00:18:40;101032.09;;;0.36;93.15
57668;BME280;43499;52.366;12.912;2023-01-30T00:19:41;101016.91;;;0.32;93.69
57668;BME280;43499;52.366;12.912;2023-01-30T00:20:42;101023.78;;;0.38;93.72
57668;BME280;43499;52.366;12.912;2023-01-30T00:21:43;101027.09;;;0.37;93.13
57668;BME280;43499;52.366;12.912;2023-01-30T00:22:44;101017.66;;;0.30;93.71
57668;BME280;43499;52.366;12.912;2023-01-30T00:23:45;101039.16;;;0.44;92.90
57668;BME280;43499;52.366;12.912;2023-01-30T00:24:47;101020.28;;;0.38;93.53
57668;BME280;43499;52.366;12.912;2023-01-30T00:25:48;101009.16;;;0.32;93.34
57668;BME280;43499;52.366;12.912;2023-01-30T00:26:50;101005.69;;;0.38;92.90
57668;BME280;43499;52.366;12.912;2023-01-30T00:27:51;101025.66;;;0.46;93.16
57668;BME280;43499;52.366;12.912;2023-01-30T00:28:52;101015.88;;;0.44;93.71
57668;BME280;43499;52.366;12.912;2023-01-30T00:29:53;100995.91;;;0.36;93.99
57668;BME280;43499;52.366;12.912;2023-01-30T00:30:55;100995.00;;;0.42;93.01
57668;BME280;43499;52.366;12.912;2023-01-30T00:31:57;100979.66;;;0.37;93.01
57668;BME280;43499;52.366;12.912;2023-01-30T00:32:58;100978.69;;;0.36;93.46
57668;BME280;43499;52.366;12.912;2023-01-30T00:33:59;100980.94;;;0.40;93.25
57668;BME280;43499;52.366;12.912;2023-01-30T00:35:00;100956.88;;;0.27;93.25
57668;BME280;43499;52.366;12.912;2023-01-30T00:36:02;100965.78;;;0.36;93.31
57668;BME280;43499;52.366;12.912;2023-01-30T00:37:04;100913.78;;;0.06;93.61
57668;BME280;43499;52.366;12.912;2023-01-30T00:38:05;100975.38;;;0.37;93.00
57668;BME280;43499;52.366;12.912;2023-01-30T00:39:06;100954.34;;;0.41;93.51
57668;BME280;43499;52.366;12.912;2023-01-30T00:40:07;100955.09;;;0.40;93.73
57668;BME280;43499;52.366;12.912;2023-01-30T00:41:08;100950.81;;;0.41;93.82
57668;BME280;43499;52.366;12.912;2023-01-30T00:42:10;100932.72;;;0.34;93.53
57668;BME280;43499;52.366;12.912;2023-01-30T00:43:30;100911.28;;;0.27;93.47
57668;BME280;43499;52.366;12.912;2023-01-30T00:44:49;100929.78;;;0.38;93.44
57668;BME280;43499;52.366;12.912;2023-01-30T00:46:14;100894.09;;;0.28;93.60
57668;BME280;43499;52.366;12.912;2023-01-30T00:47:35;100906.88;;;0.41;93.32
57668;BME280;43499;52.366;12.912;2023-01-30T00:48:36;100866.69;;;0.08;93.56
57668;BME280;43499;52.366;12.912;2023-01-30T00:49:37;100878.75;;;0.22;93.41
57668;BME280;43499;52.366;12.912;2023-01-30T00:50:38;100905.41;;;0.43;94.04
57668;BME280;43499;52.366;12.912;2023-01-30T00:51:42;100860.97;;;0.11;93.15
57668;BME280;43499;52.366;12.912;2023-01-30T00:52:43;100898.91;;;0.32;93.24
57668;BME280;43499;52.366;12.912;2023-01-30T00:53:44;100865.81;;;0.15;93.21
57668;BME280;43499;52.366;12.912;2023-01-30T00:54:45;100912.81;;;0.40;93.46
57668;BME280;43499;52.366;12.912;2023-01-30T00:55:50;100908.16;;;0.37;93.44
57668;BME280;43499;52.366;12.912;2023-01-30T00:56:51;100894.47;;;0.31;93.46
57668;BME280;43499;52.366;12.912;2023-01-30T00:57:52;100890.94;;;0.30;94.01
57668;BME280;43499;52.366;12.912;2023-01-30T00:58:53;100901.13;;;0.36;93.15
57668;BME280;43499;52.366;12.912;2023-01-30T00:59:54;100854.91;;;0.18;93.41
57668;BME280;43499;52.366;12.912;2023-01-30T01:00:55;100851.53;;;0.04;92.96
57668;BME280;43499;52.366;12.912;2023-01-30T01:01:57;100897.81;;;0.37;92.98
57668;BME280;43499;52.366;12.912;2023-01-30T01:02:58;100865.25;;;0.18;93.10
57668;BME280;43499;52.366;12.912;2023-01-30T01:03:59;100859.16;;;0.17;93.22
57668;BME280;43499;52.366;12.912;2023-01-30T01:05:00;100887.13;;;0.34;93.61
57668;BME280;43499;52.366;12.912;2023-01-30T01:06:01;100872.13;;;0.32;94.11
57668;BME280;43499;52.366;12.912;2023-01-30T01:07:02;100880.25;;;0.27;94.08
57668;BME280;43499;52.366;12.912;2023-01-30T01:08:04;100886.34;;;0.35;93.11
57668;BME280;43499;52.366;12.912;2023-01-30T01:09:06;100886.56;;;0.37;93.07
57668;BME280;43499;52.366;12.912;2023-01-30T01:10:07;100875.84;;;0.34;93.58
57668;BME280;43499;52.366;12.912;2023-01-30T01:11:08;100853.50;;;0.34;93.12
57668;BME280;43499;52.366;12.912;2023-01-30T01:12:10;100874.03;;;0.40;93.03
57668;BME280;43499;52.366;12.912;2023-01-30T01:13:11;100862.91;;;0.34;93.90
57668;BME280;43499;52.366;12.912;2023-01-30T01:14:12;100844.97;;;0.35;93.52
57668;BME280;43499;52.366;12.912;2023-01-30T01:15:13;100810.63;;;0.29;93.50
57668;BME280;43499;52.366;12.912;2023-01-30T01:16:14;100822.09;;;0.31;92.93
57668;BME280;43499;52.366;12.912;2023-01-30T01:17:15;100835.19;;;0.33;92.68
57668;BME280;43499;52.366;12.912;2023-01-30T01:18:16;100836.13;;;0.33;93.08
57668;BME280;43499;52.366;12.912;2023-01-30T01:19:17;100840.75;;;0.36;93.36
57668;BME280;43499;52.366;12.912;2023-01-30T01:20:19;100836.13;;;0.33;93.15
57668;BME280;43499;52.366;12.912;2023-01-30T01:21:21;100840.03;;;0.37;92.69
57668;BME280;43499;52.366;12.912;2023-01-30T01:22:22;100817.25;;;0.20;92.76
57668;BME280;43499;52.366;12.912;2023-01-30T01:23:23;100836.13;;;0.40;93.25
57668;BME280;43499;52.366;12.912;2023-01-30T01:24:24;100808.59;;;0.26;93.45
57668;BME280;43499;52.366;12.912;2023-01-30T01:25:25;100819.50;;;0.38;92.94
57668;BME280;43499;52.366;12.912;2023-01-30T01:26:26;100827.66;;;0.41;92.95
57668;BME280;43499;52.366;12.912;2023-01-30T01:27:28;100815.44;;;0.33;92.81
57668;BME280;43499;52.366;12.912;2023-01-30T01:28:29;100782.53;;;0.25;92.74
57668;BME280;43499;52.366;12.912;2023-01-30T01:29:30;100792.34;;;0.35;92.75
57668;BME280;43499;52.366;12.912;2023-01-30T01:30:32;100816.97;;;0.45;92.58
57668;BME280;43499;52.366;12.912;2023-01-30T01:31:33;100809.38;;;0.47;92.42
57668;BME280;43499;52.366;12.912;2023-01-30T01:32:34;100777.94;;;0.22;93.29
57668;BME280;43499;52.366;12.912;2023-01-30T01:33:36;100747.25;;;0.11;92.45
57668;BME280;43499;52.366;12.912;2023-01-30T01:34:37;100805.66;;;0.38;93.07
57668;BME280;43499;52.366;12.912;2023-01-30T01:35:40;100775.88;;;0.12;92.39
57668;BME280;43499;52.366;12.912;2023-01-30T01:36:41;100836.53;;;0.51;92.61
57668;BME280;43499;52.366;12.912;2023-01-30T01:37:44;100819.34;;;0.44;92.57
57668;BME280;43499;52.366;12.912;2023-01-30T01:38:45;100804.72;;;0.30;93.11
57668;BME280;43499;52.366;12.912;2023-01-30T01:39:47;100831.34;;;0.51;92.27
57668;BME280;43499;52.366;12.912;2023-01-30T01:41:08;100842.25;;;0.55;92.47
57668;BME280;43499;52.366;12.912;2023-01-30T01:42:09;100829.88;;;0.53;92.52
57668;BME280;43499;52.366;12.912;2023-01-30T01:43:18;100837.81;;;0.54;93.04
57668;BME280;43499;52.366;12.912;2023-01-30T01:44:19;100824.53;;;0.51;92.49
57668;BME280;43499;52.366;12.912;2023-01-30T01:45:22;100835.22;;;0.54;92.86
57668;BME280;43499;52.366;12.912;2023-01-30T01:46:31;100839.66;;;0.55;93.05
57668;BME280;43499;52.366;12.912;2023-01-30T01:47:34;100829.31;;;0.48;92.77
57668;BME280;43499;52.366;12.912;2023-01-30T01:48:41;100812.13;;;0.41;92.98
57668;BME280;43499;52.366;12.912;2023-01-30T01:49:45;100821.78;;;0.57;92.67
57668;BME280;43499;52.366;12.912;2023-01-30T01:50:48;100833.94;;;0.58;92.12
57668;BME280;43499;52.366;12.912;2023-01-30T01:51:56;100823.59;;;0.58;92.62
57668;BME280;43499;52.366;12.912;2023-01-30T01:53:00;100808.25;;;0.52;92.40
57668;BME280;43499;52.366;12.912;2023-01-30T01:54:10;100814.75;;;0.56;92.28
57668;BME280;43499;52.366;12.912;2023-01-30T01:55:15;100798.28;;;0.48;92.97
57668;BME280;43499;52.366;12.912;2023-01-30T01:56:18;100759.66;;;0.28;92.82
57668;BME280;43499;52.366;12.912;2023-01-30T01:57:26;100778.34;;;0.54;92.86
57668;BME280;43499;52.366;12.912;2023-01-30T01:58:37;100787.56;;;0.52;92.61
57668;BME280;43499;52.366;12.912;2023-01-30T01:59:44;100789.97;;;0.58;92.82
57668;BME280;43499;52.366;12.912;2023-01-30T02:00:50;100775.41;;;0.51;93.00
57668;BME280;43499;52.366;12.912;2023-01-30T02:01:55;100755.25;;;0.49;93.72
57668;BME280;43499;52.366;12.912;2023-01-30T02:03:00;100750.63;;;0.46;93.27
57668;BME280;43499;52.366;12.912;2023-01-30T02:04:04;100762.63;;;0.53;93.15
57668;BME280;43499;52.366;12.912;2023-01-30T02:05:09;100745.44;;;0.53;93.54
57668;BME280;43499;52.366;12.912;2023-01-30T02:06:13;100744.34;;;0.44;94.10
57668;BME280;43499;52.366;12.912;2023-01-30T02:07:17;100758.19;;;0.59;93.88
57668;BME280;43499;52.366;12.912;2023-01-30T02:08:23;100751.16;;;0.58;93.76
57668;BME280;43499;52.366;12.912;2023-01-30T02:09:27;100731.78;;;0.54;94.03
57668;BME280;43499;52.366;12.912;2023-01-30T02:10:45;100755.06;;;0.61;94.17
57668;BME280;43499;52.366;12.912;2023-01-30T02:11:55;100729.19;;;0.54;93.97
57668;BME280;43499;52.366;12.912;2023-01-30T02:12:56;100732.31;;;0.59;94.25
57668;BME280;43499;52.366;12.912;2023-01-30T02:13:58;100729.56;;;0.57;93.53
57668;BME280;43499;52.366;12.912;2023-01-30T02:15:01;100730.84;;;0.61;93.72
57668;BME280;43499;52.366;12.912;2023-01-30T02:16:06;100719.03;;;0.63;94.06
57668;BME280;43499;52.366;12.912;2023-01-30T02:17:07;100703.53;;;0.56;93.94
57668;BME280;43499;52.366;12.912;2023-01-30T02:18:09;100679.31;;;0.41;94.17
57668;BME280;43499;52.366;12.912;2023-01-30T02:19:32;100685.22;;;0.54;94.21
57668;BME280;43499;52.366;12.912;2023-01-30T02:21:09;100709.81;;;0.65;94.88
57668;BME280;43499;52.366;12.912;2023-01-30T02:22:56;100691.69;;;0.58;94.74
57668;BME280;43499;52.366;12.912;2023-01-30T02:24:25;100703.31;;;0.69;94.60
57668;BME280;43499;52.366;12.912;2023-01-30T02:28:03;100642.59;;;0.29;96.46
57668;BME280;43499;52.366;12.912;2023-01-30T02:29:38;100682.81;;;0.63;97.04
57668;BME280;43499;52.366;12.912;2023-01-30T02:31:13;100691.88;;;0.67;98.02
57668;BME280;43499;52.366;12.912;2023-01-30T02:32:39;100688.38;;;0.66;98.80
57668;BME280;43499;52.366;12.912;2023-01-30T02:33:54;100677.81;;;0.65;99.13
57668;BME280;43499;52.366;12.912;2023-01-30T02:36:22;100650.69;;;0.54;99.83
57668;BME280;43499;52.366;12.912;2023-01-30T02:37:38;100656.97;;;0.63;100.00
57668;BME280;43499;52.366;12.912;2023-01-30T02:39:37;100602.31;;;0.31;99.42
57668;BME280;43499;52.366;12.912;2023-01-30T02:41:39;100626.66;;;0.48;99.63
57668;BME280;43499;52.366;12.912;2023-01-30T02:42:50;100661.00;;;0.61;99.65
57668;BME280;43499;52.366;12.912;2023-01-30T02:44:02;100655.47;;;0.65;100.00
57668;BME280;43499;52.366;12.912;2023-01-30T02:45:27;100660.25;;;0.69;100.00
57668;BME280;43499;52.366;12.912;2023-01-30T02:48:16;100639.56;;;0.69;100.00
57668;BME280;43499;52.366;12.912;2023-01-30T02:49:34;100633.50;;;0.61;99.69
57668;BME280;43499;52.366;12.912;2023-01-30T02:50:43;100648.06;;;0.75;99.89
57668;BME280;43499;52.366;12.912;2023-01-30T02:51:46;100627.41;;;0.68;99.19
57668;BME280;43499;52.366;12.912;2023-01-30T02:52:50;100599.88;;;0.54;100.00
57668;BME280;43499;52.366;12.912;2023-01-30T02:53:52;100639.56;;;0.76;99.80
57668;BME280;43499;52.366;12.912;2023-01-30T02:54:54;100623.09;;;0.76;99.89
57668;BME280;43499;52.366;12.912;2023-01-30T02:55:56;100592.66;;;0.66;99.45
57668;BME280;43499;52.366;12.912;2023-01-30T02:56:58;100616.28;;;0.69;98.93
57668;BME280;43499;52.366;12.912;2023-01-30T02:58:01;100555.56;;;0.44;98.83
57668;BME280;43499;52.366;12.912;2023-01-30T02:59:04;100590.28;;;0.60;98.75
57668;BME280;43499;52.366;12.912;2023-01-30T03:00:10;100583.41;;;0.68;99.39
57668;BME280;43499;52.366;12.912;2023-01-30T03:01:21;100609.22;;;0.83;98.60
57668;BME280;43499;52.366;12.912;2023-01-30T03:02:48;100610.69;;;0.81;98.55
57668;BME280;43499;52.366;12.912;2023-01-30T03:04:30;100608.69;;;0.85;99.29
57668;BME280;43499;52.366;12.912;2023-01-30T03:07:26;100576.38;;;0.74;98.42
57668;BME280;43499;52.366;12.912;2023-01-30T03:08:41;100572.09;;;0.82;98.29
57668;BME280;43499;52.366;12.912;2023-01-30T03:09:57;100596.66;;;0.86;98.80
57668;BME280;43499;52.366;12.912;2023-01-30T03:11:05;100573.94;;;0.76;98.95
57668;BME280;43499;52.366;12.912;2023-01-30T03:12:37;100597.72;;;0.95;98.90
57668;BME280;43499;52.366;12.912;2023-01-30T03:14:02;100584.63;;;0.94;98.68
57668;BME280;43499;52.366;12.912;2023-01-30T03:15:28;100585.94;;;0.90;99.00
57668;BME280;43499;52.366;12.912;2023-01-30T03:16:36;100571.31;;;0.90;98.98
57668;BME280;43499;52.366;12.912;2023-01-30T03:17:41;100581.97;;;1.01;99.23
57668;BME280;43499;52.366;12.912;2023-01-30T03:18:46;100570.00;;;1.01;99.00
57668;BME280;43499;52.366;12.912;2023-01-30T03:19:52;100571.09;;;1.03;99.34
57668;BME280;43499;52.366;12.912;2023-01-30T03:20:53;100578.66;;;1.02;99.42
57668;BME280;43499;52.366;12.912;2023-01-30T03:21:54;100575.16;;;1.01;98.68
57668;BME280;43499;52.366;12.912;2023-01-30T03:22:55;100531.06;;;0.78;98.88
57668;BME280;43499;52.366;12.912;2023-01-30T03:23:57;100586.22;;;1.07;99.51
57668;BME280;43499;52.366;12.912;2023-01-30T03:24:58;100572.16;;;1.05;99.04
57668;BME280;43499;52.366;12.912;2023-01-30T03:25:59;100560.75;;;0.96;98.99
57668;BME280;43499;52.366;12.912;2023-01-30T03:27:06;100579.56;;;1.10;99.03
57668;BME280;43499;52.366;12.912;2023-01-30T03:28:09;100549.50;;;0.96;98.68
57668;BME280;43499;52.366;12.912;2023-01-30T03:29:12;100566.25;;;1.06;99.05
57668;BME280;43499;52.366;12.912;2023-01-30T03:30:14;100505.91;;;0.84;98.60
57668;BME280;43499;52.366;12.912;2023-01-30T03:31:15;100542.78;;;1.05;98.26
57668;BME280;43499;52.366;12.912;2023-01-30T03:32:17;100546.16;;;0.97;97.89
57668;BME280;43499;52.366;12.912;2023-01-30T03:33:18;100556.25;;;1.10;98.56
57668;BME280;43499;52.366;12.912;2023-01-30T03:34:22;100557.00;;;1.08;97.80
57668;BME280;43499;52.366;12.912;2023-01-30T03:35:23;100558.47;;;1.14;97.85
57668;BME280;43499;52.366;12.912;2023-01-30T03:36:24;100542.19;;;1.15;97.92
57668;BME280;43499;52.366;12.912;2023-01-30T03:37:26;100552.75;;;1.09;97.80
57668;BME280;43499;52.366;12.912;2023-01-30T03:38:27;100561.97;;;1.14;98.05
57668;BME280;43499;52.366;12.912;2023-01-30T03:39:29;100553.09;;;1.12;97.49
57668;BME280;43499;52.366;12.912;2023-01-30T03:40:30;100553.44;;;1.15;97.50
57668;BME280;43499;52.366;12.912;2023-01-30T03:41:31;100539.03;;;1.10;97.37
57668;BME280;43499;52.366;12.912;2023-01-30T03:42:34;100561.75;;;1.20;96.88
57668;BME280;43499;52.366;12.912;2023-01-30T03:43:35;100549.53;;;1.19;97.73
57668;BME280;43499;52.366;12.912;2023-01-30T03:44:37;100541.78;;;1.19;97.78
57668;BME280;43499;52.366;12.912;2023-01-30T03:45:38;100551.75;;;1.23;97.09
57668;BME280;43499;52.366;12.912;2023-01-30T03:46:39;100541.81;;;1.12;97.30
57668;BME280;43499;52.366;12.912;2023-01-30T03:48:05;100536.97;;;1.22;96.62
57668;BME280;43499;52.366;12.912;2023-01-30T04:06:35;100474.72;;;1.36;97.29
57668;BME280;43499;52.366;12.912;2023-01-30T04:19:12;100398.44;;;0.95;98.08
57668;BME280;43499;52.366;12.912;2023-01-30T04:36:51;100418.84;;;1.15;99.11
57668;BME280;43499;52.366;12.912;2023-01-30T04:47:58;100381.94;;;1.02;99.99
57668;BME280;43499;52.366;12.912;2023-01-30T05:01:22;100412.75;;;1.15;100.00
57668;BME280;43499;52.366;12.912;2023-01-30T05:02:24;100401.09;;;1.11;100.00
57668;BME280;43499;52.366;12.912;2023-01-30T05:05:07;100418.78;;;1.22;100.00
57668;BME280;43499;52.366;12.912;2023-01-30T05:28:21;100380.22;;;1.10;100.00
57668;BME280;43499;52.366;12.912;2023-01-30T05:31:06;100318.25;;;0.72;100.00
57668;BME280;43499;52.366;12.912;2023-01-30T05:32:42;100354.53;;;0.88;100.00
57668;BME280;43499;52.366;12.912;2023-01-30T05:35:00;100374.47;;;1.12;100.00
57668;BME280;43499;52.366;12.912;2023-01-30T05:36:50;100297.19;;;0.69;100.00
57668;BME280;43499;52.366;12.912;2023-01-30T05:37:52;100332.72;;;0.86;100.00
57668;BME280;43499;52.366;12.912;2023-01-30T05:38:53;100377.41;;;1.15;100.00
57668;BME280;43499;52.366;12.912;2023-01-30T05:39:54;100358.84;;;1.03;100.00
57668;BME280;43499;52.366;12.912;2023-01-30T05:41:04;100370.97;;;1.12;100.00
57668;BME280;43499;52.366;12.912;2023-01-30T05:42:06;100364.47;;;1.15;100.00
57668;BME280;43499;52.366;12.912;2023-01-30T05:43:31;100294.03;;;0.71;100.00
57668;BME280;43499;52.366;12.912;2023-01-30T05:49:19;100361.06;;;1.23;100.00
57668;BME280;43499;52.366;12.912;2023-01-30T05:51:20;100354.41;;;1.26;100.00
57668;BME280;43499;52.366;12.912;2023-01-30T05:56:18;100350.47;;;1.29;100.00
57668;BME280;43499;52.366;12.912;2023-01-30T05:58:55;100284.34;;;1.01;100.00
57668;BME280;43499;52.366;12.912;2023-01-30T06:00:27;100258.91;;;0.97;100.00
57668;BME280;43499;52.366;12.912;2023-01-30T06:01:28;100318.16;;;1.26;100.00
57668;BME280;43499;52.366;12.912;2023-01-30T06:02:29;100308.13;;;1.29;100.00
57668;BME280;43499;52.366;12.912;2023-01-30T06:03:31;100327.53;;;1.32;100.00
57668;BME280;43499;52.366;12.912;2023-01-30T06:04:32;100303.94;;;1.22;100.00
57668;BME280;43499;52.366;12.912;2023-01-30T06:05:36;100307.56;;;1.31;100.00
57668;BME280;43499;52.366;12.912;2023-01-30T06:06:38;100297.44;;;1.26;100.00
57668;BME280;43499;52.366;12.912;2023-01-30T06:07:39;100328.53;;;1.42;100.00
57668;BME280;43499;52.366;12.912;2023-01-30T06:08:40;100286.66;;;1.14;100.00
57668;BME280;43499;52.366;12.912;2023-01-30T06:09:41;100293.59;;;1.22;100.00
57668;BME280;43499;52.366;12.912;2023-01-30T06:24:22;100297.81;;;1.61;100.00
57668;BME280;43499;52.366;12.912;2023-01-30T06:27:09;100305.56;;;1.61;100.00
57668;BME280;43499;52.366;12.912;2023-01-30T06:52:07;100322.41;;;2.21;100.00
57668;BME280;43499;52.366;12.912;2023-01-30T06:57:45;100207.53;;;1.89;100.00
57668;BME280;43499;52.366;12.912;2023-01-30T07:16:39;100310.28;;;2.78;100.00
57668;BME280;43499;52.366;12.912;2023-01-30T07:28:20;100300.31;;;2.99;100.00
57668;BME280;43499;52.366;12.912;2023-01-30T07:54:29;100240.63;;;3.17;100.00
57668;BME280;43499;52.366;12.912;2023-01-30T08:41:09;100298.56;;;3.93;100.00
57668;BME280;43499;52.366;12.912;2023-01-30T08:57:04;100290.56;;;4.99;100.00
57668;BME280;43499;52.366;12.912;2023-01-30T08:59:17;100272.19;;;6.19;100.00
57668;BME280;43499;52.366;12.912;2023-01-30T09:07:00;100285.91;;;4.77;100.00
57668;BME280;43499;52.366;12.912;2023-01-30T09:52:41;100308.31;;;5.39;92.68
57668;BME280;43499;52.366;12.912;2023-01-30T09:54:03;100289.09;;;5.20;91.85
57668;BME280;43499;52.366;12.912;2023-01-30T09:55:27;100323.06;;;5.30;93.15
57668;BME280;43499;52.366;12.912;2023-01-30T09:56:29;100315.56;;;5.24;93.50
57668;BME280;43499;52.366;12.912;2023-01-30T09:57:31;100264.78;;;5.38;92.58
57668;BME280;43499;52.366;12.912;2023-01-30T09:58:56;100328.72;;;5.63;91.27
57668;BME280;43499;52.366;12.912;2023-01-30T10:01:20;100316.75;;;6.12;88.65
57668;BME280;43499;52.366;12.912;2023-01-30T10:02:34;100317.81;;;6.33;88.32
57668;BME280;43499;52.366;12.912;2023-01-30T10:03:51;100312.06;;;8.29;81.19
57668;BME280;43499;52.366;12.912;2023-01-30T10:04:55;100257.34;;;9.99;69.34
57668;BME280;43499;52.366;12.912;2023-01-30T10:06:03;100292.28;;;11.42;64.22
57668;BME280;43499;52.366;12.912;2023-01-30T10:07:30;100301.25;;;12.89;59.26
57668;BME280;43499;52.366;12.912;2023-01-30T10:08:48;100281.66;;;12.99;56.64
57668;BME280;43499;52.366;12.912;2023-01-30T10:10:00;100298.75;;;12.64;57.04
57668;BME280;43499;52.366;12.912;2023-01-30T10:12:41;100269.19;;;9.14;66.66
57668;BME280;43499;52.366;12.912;2023-01-30T10:18:15;100295.09;;;8.03;74.47
57668;BME280;43499;52.366;12.912;2023-01-30T10:19:45;100311.59;;;8.02;74.75
57668;BME280;43499;52.366;12.912;2023-01-30T10:21:00;100305.94;;;7.77;75.62
57668;BME280;43499;52.366;12.912;2023-01-30T10:22:20;100241.59;;;7.17;77.28
57668;BME280;43499;52.366;12.912;2023-01-30T10:25:06;100254.97;;;6.90;80.08
57668;BME280;43499;52.366;12.912;2023-01-30T10:26:19;100294.84;;;10.32;68.86
57668;BME280;43499;52.366;12.912;2023-01-30T10:27:24;100266.84;;;11.43;62.01
57668;BME280;43499;52.366;12.912;2023-01-30T10:28:36;100246.81;;;12.36;59.08
57668;BME280;43499;52.366;12.912;2023-01-30T10:29:40;100276.94;;;13.22;56.13
57668;BME280;43499;52.366;12.912;2023-01-30T10:30:48;100249.44;;;13.47;54.36
57668;BME280;43499;52.366;12.912;2023-01-30T10:31:55;100263.53;;;13.91;53.82
57668;BME280;43499;52.366;12.912;2023-01-30T10:33:04;100261.91;;;14.84;51.77
57668;BME280;43499;52.366;12.912;2023-01-30T10:34:26;100252.53;;;14.13;50.49
57668;BME280;43499;52.366;12.912;2023-01-30T10:35:32;100260.09;;;14.37;50.54
57668;BME280;43499;52.366;12.912;2023-01-30T10:36:43;100239.69;;;14.65;50.00
57668;BME280;43499;52.366;12.912;2023-01-30T10:37:57;100258.66;;;14.73;49.93
57668;BME280;43499;52.366;12.912;2023-01-30T10:39:02;100255.28;;;14.61;50.74
57668;BME280;43499;52.366;12.912;2023-01-30T10:40:17;100223.91;;;12.22;54.72
57668;BME280;43499;52.366;12.912;2023-01-30T10:41:36;100244.34;;;10.72;59.38
57668;BME280;43499;52.366;12.912;2023-01-30T10:43:58;100257.81;;;11.65;58.82
57668;BME280;43499;52.366;12.912;2023-01-30T10:45:09;100261.25;;;11.64;58.88
57668;BME280;43499;52.366;12.912;2023-01-30T10:46:34;100239.84;;;11.71;58.56
57668;BME280;43499;52.366;12.912;2023-01-30T10:47:47;100266.53;;;10.52;61.26
57668;BME280;43499;52.366;12.912;2023-01-30T10:49:12;100276.22;;;9.60;65.36
57668;BME280;43499;52.366;12.912;2023-01-30T10:50:18;100221.81;;;8.36;68.71
57668;BME280;43499;52.366;12.912;2023-01-30T10:51:48;100288.97;;;8.45;70.00
57668;BME280;43499;52.366;12.912;2023-01-30T10:53:07;100281.28;;;8.37;70.56
57668;BME280;43499;52.366;12.912;2023-01-30T10:54:20;100240.56;;;8.51;70.44
57668;BME280;43499;52.366;12.912;2023-01-30T10:55:38;100280.44;;;8.58;69.77
57668;BME280;43499;52.366;12.912;2023-01-30T10:57:54;100257.28;;;8.10;71.52
57668;BME280;43499;52.366;12.912;2023-01-30T11:01:36;100261.06;;;7.20;76.88
57668;BME280;43499;52.366;12.912;2023-01-30T11:03:08;100255.09;;;6.82;78.61
57668;BME280;43499;52.366;12.912;2023-01-30T11:04:37;100252.22;;;6.78;79.13
57668;BME280;43499;52.366;12.912;2023-01-30T11:05:53;100279.38;;;6.70;79.46
57668;BME280;43499;52.366;12.912;2023-01-30T11:06:59;100247.22;;;6.31;80.32
57668;BME280;43499;52.366;12.912;2023-01-30T11:08:00;100273.78;;;6.46;80.65
57668;BME280;43499;52.366;12.912;2023-01-30T11:09:01;100217.09;;;6.16;81.33
57668;BME280;43499;52.366;12.912;2023-01-30T11:10:14;100214.47;;;6.35;81.14
57668;BME280;43499;52.366;12.912;2023-01-30T11:11:29;100255.41;;;6.95;80.46
57668;BME280;43499;52.366;12.912;2023-01-30T11:12:31;100258.06;;;7.16;79.12
57668;BME280;43499;52.366;12.912;2023-01-30T11:13:32;100249.72;;;9.22;71.51
57668;BME280;43499;52.366;12.912;2023-01-30T11:14:57;100248.31;;;9.96;67.54
57668;BME280;43499;52.366;12.912;2023-01-30T11:16:07;100225.09;;;9.32;67.41
57668;BME280;43499;52.366;12.912;2023-01-30T11:17:15;100217.19;;;8.86;68.81
57668;BME280;43499;52.366;12.912;2023-01-30T11:18:18;100231.91;;;8.31;71.40
57668;BME280;43499;52.366;12.912;2023-01-30T11:19:26;100241.84;;;7.82;73.38
57668;BME280;43499;52.366;12.912;2023-01-30T11:20:38;100196.50;;;7.30;74.84
57668;BME280;43499;52.366;12.912;2023-01-30T11:21:39;100204.69;;;6.83;77.41
57668;BME280;43499;52.366;12.912;2023-01-30T11:22:45;100229.47;;;6.77;77.63
57668;BME280;43499;52.366;12.912;2023-01-30T11:23:47;100220.47;;;6.74;78.33
57668;BME280;43499;52.366;12.912;2023-01-30T11:24:48;100240.16;;;6.60;79.46
57668;BME280;43499;52.366;12.912;2023-01-30T11:25:54;100214.50;;;6.45;79.38
57668;BME280;43499;52.366;12.912;2023-01-30T11:27:26;100233.88;;;6.58;80.01
57668;BME280;43499;52.366;12.912;2023-01-30T11:28:34;100216.50;;;6.58;79.56